createdAt,value
2023-04-18T00:00:46.242Z,10.88
2023-04-18T00:03:16.004Z,12.00
2023-04-18T00:05:48.066Z,11.93
2023-04-18T00:08:15.335Z,13.40
2023-04-18T00:10:42.486Z,11.95
2023-04-18T00:13:10.286Z,11.52
2023-04-18T00:15:37.507Z,12.25
2023-04-18T00:18:06.108Z,11.90
2023-04-18T00:20:33.252Z,12.00
2023-04-18T00:23:00.847Z,11.70
2023-04-18T00:25:27.917Z,11.18
2023-04-18T00:27:54.899Z,12.35
2023-04-18T00:30:21.876Z,10.40
2023-04-18T00:32:48.845Z,11.23
2023-04-18T00:35:15.913Z,12.95
2023-04-18T00:37:43.172Z,11.70
2023-04-18T00:40:10.734Z,13.23
2023-04-18T00:42:38.531Z,12.45
2023-04-18T00:45:07.368Z,11.52
2023-04-18T00:47:34.408Z,13.30
2023-04-18T00:50:02.433Z,11.70
2023-04-18T00:52:29.529Z,13.75
2023-04-18T00:54:56.707Z,13.02
2023-04-18T00:57:23.802Z,13.77
2023-04-18T00:59:51.142Z,13.07
2023-04-18T01:02:18.199Z,13.05
2023-04-18T01:04:45.365Z,13.90
2023-04-18T01:07:12.788Z,13.95
2023-04-18T01:09:41.237Z,14.57
2023-04-18T01:12:08.312Z,13.00
2023-04-18T01:14:35.452Z,14.98
2023-04-18T01:17:03.643Z,13.27
2023-04-18T01:19:30.707Z,13.15
2023-04-18T01:21:57.676Z,14.13
2023-04-18T01:24:26.780Z,14.05
2023-04-18T01:26:53.818Z,9.55
2023-04-18T01:29:20.811Z,14.18
2023-04-18T01:31:47.784Z,14.05
2023-04-18T01:34:17.828Z,14.20
2023-04-18T01:36:45.648Z,13.57
2023-04-18T01:39:13.518Z,14.45
2023-04-18T01:41:42.235Z,13.25
2023-04-18T01:44:10.086Z,15.32
2023-04-18T01:46:37.203Z,14.32
2023-04-18T01:49:05.049Z,14.23
2023-04-18T01:51:32.060Z,13.32
2023-04-18T01:53:59.115Z,12.98
2023-04-18T01:56:26.198Z,14.48
2023-04-18T01:58:53.237Z,14.05
2023-04-18T02:01:20.520Z,13.38
2023-04-18T02:03:47.864Z,12.85
2023-04-18T02:06:15.148Z,13.55
2023-04-18T02:08:42.328Z,13.40
2023-04-18T02:11:09.306Z,13.13
2023-04-18T02:13:36.375Z,13.95
2023-04-18T02:16:11.780Z,12.43
2023-04-18T02:18:40.244Z,13.23
2023-04-18T02:21:07.330Z,13.38
2023-04-18T02:23:34.299Z,13.07
2023-04-18T02:26:01.328Z,12.32
2023-04-18T02:28:28.270Z,12.95
2023-04-18T02:30:55.239Z,12.90
2023-04-18T02:33:22.212Z,14.00
2023-04-18T02:35:49.190Z,12.85
2023-04-18T02:38:16.371Z,13.93
2023-04-18T02:40:43.321Z,14.35
2023-04-18T02:43:10.311Z,14.15
2023-04-18T02:45:39.491Z,14.85
2023-04-18T02:48:06.603Z,13.25
2023-04-18T02:50:35.550Z,13.85
2023-04-18T02:53:02.805Z,12.77
2023-04-18T02:55:41.462Z,9.73
2023-04-18T02:58:08.559Z,13.25
2023-04-18T03:00:57.278Z,13.57
2023-04-18T03:03:44.748Z,13.77
2023-04-18T03:06:32.306Z,12.95
2023-04-18T03:11:29.058Z,13.73
2023-04-18T03:13:56.414Z,12.90
2023-04-18T03:16:26.399Z,13.73
2023-04-18T03:18:53.555Z,13.05
2023-04-18T03:21:22.512Z,14.77
2023-04-18T03:23:50.267Z,13.35
2023-04-18T03:26:17.334Z,13.63
2023-04-18T03:28:45.824Z,13.55
2023-04-18T03:31:13.044Z,13.40
2023-04-18T03:33:44.293Z,13.30
2023-04-18T03:36:15.136Z,14.25
2023-04-18T03:38:42.259Z,14.23
2023-04-18T03:41:09.554Z,13.98
2023-04-18T03:43:38.146Z,12.30
2023-04-18T03:46:05.415Z,13.35
2023-04-18T03:48:37.230Z,13.75
2023-04-18T03:51:08.884Z,13.30
2023-04-18T03:53:36.936Z,13.45
2023-04-18T03:56:04.211Z,14.20
2023-04-18T03:58:51.501Z,13.68
2023-04-18T04:01:20.427Z,10.10
2023-04-18T04:03:47.739Z,12.95
2023-04-18T04:06:15.100Z,13.13
2023-04-18T04:08:42.170Z,13.90
2023-04-18T04:11:09.533Z,13.55
2023-04-18T04:13:36.601Z,13.85
2023-04-18T04:16:05.736Z,13.70
2023-04-18T04:18:32.871Z,14.00
2023-04-18T04:21:03.634Z,15.15
2023-04-18T04:23:42.578Z,13.45
2023-04-18T04:26:15.150Z,13.85
2023-04-18T04:28:53.658Z,14.27
2023-04-18T04:31:23.879Z,14.60
2023-04-18T04:33:51.099Z,14.70
2023-04-18T04:36:23.193Z,14.05
2023-04-18T04:38:52.574Z,14.70
2023-04-18T04:41:27.765Z,14.80
2023-04-18T04:43:55.059Z,14.70
2023-04-18T04:46:30.578Z,13.85
2023-04-18T04:48:58.676Z,14.43
2023-04-18T04:51:28.007Z,13.52
2023-04-18T04:53:55.649Z,14.32
2023-04-18T04:56:23.459Z,15.38
2023-04-18T04:58:50.669Z,13.70
2023-04-18T05:01:24.749Z,13.68
2023-04-18T05:03:52.814Z,13.50
2023-04-18T05:06:20.914Z,14.70
2023-04-18T05:08:48.709Z,12.90
2023-04-18T05:11:16.160Z,13.23
2023-04-18T05:13:43.108Z,14.18
2023-04-18T05:16:10.289Z,15.35
2023-04-18T05:18:41.471Z,15.02
2023-04-18T05:21:08.481Z,15.48
2023-04-18T05:23:37.235Z,14.75
2023-04-18T05:26:05.577Z,14.83
2023-04-18T05:28:32.809Z,15.80
2023-04-18T05:31:02.788Z,14.50
2023-04-18T05:33:30.883Z,15.25
2023-04-18T05:35:58.902Z,15.60
2023-04-18T05:38:26.279Z,15.65
2023-04-18T05:40:55.842Z,17.55
2023-04-18T05:45:52.414Z,17.50
2023-04-18T05:48:19.719Z,17.20
2023-04-18T05:50:46.814Z,16.05
2023-04-18T05:53:13.774Z,15.95
2023-04-18T05:55:41.126Z,15.57
2023-04-18T05:58:08.224Z,15.57
2023-04-18T06:00:35.885Z,16.10
2023-04-18T06:03:03.249Z,15.18
2023-04-18T06:05:31.350Z,15.30
2023-04-18T06:07:58.624Z,16.35
2023-04-18T06:10:27.681Z,16.50
2023-04-18T06:12:54.636Z,16.70
2023-04-18T06:15:21.551Z,16.23
2023-04-18T06:17:48.666Z,16.67
2023-04-18T06:20:15.681Z,16.85
2023-04-18T06:22:42.667Z,16.77
2023-04-18T06:25:10.254Z,17.35
2023-04-18T06:27:40.449Z,16.85
2023-04-18T06:30:08.318Z,16.05
2023-04-18T06:32:35.586Z,16.17
2023-04-18T06:35:02.712Z,15.65
2023-04-18T06:37:29.872Z,16.33
2023-04-18T06:39:56.814Z,15.57
2023-04-18T06:42:23.823Z,15.85
2023-04-18T06:44:50.886Z,23.45
2023-04-18T06:47:17.982Z,21.42
2023-04-18T06:49:45.019Z,16.90
2023-04-18T06:52:12.104Z,16.67
2023-04-18T06:54:39.020Z,17.42
2023-04-18T06:57:06.273Z,16.92
2023-04-18T06:59:33.237Z,16.42
2023-04-18T07:02:00.253Z,15.48
2023-04-18T07:04:27.304Z,16.88
2023-04-18T07:06:54.291Z,15.65
2023-04-18T07:09:22.648Z,16.23
2023-04-18T07:11:51.145Z,15.35
2023-04-18T07:14:19.989Z,16.15
2023-04-18T07:16:47.282Z,14.13
2023-04-18T07:19:14.475Z,15.85
2023-04-18T07:21:43.844Z,15.13
2023-04-18T07:24:11.670Z,14.48
2023-04-18T07:26:39.113Z,14.75
2023-04-18T07:29:06.096Z,14.23
2023-04-18T07:31:33.141Z,14.48
2023-04-18T07:34:00.139Z,15.38
2023-04-18T07:36:27.892Z,14.55
2023-04-18T07:38:54.901Z,13.90
2023-04-18T07:41:21.960Z,14.82
2023-04-18T07:43:48.948Z,15.80
2023-04-18T07:46:15.931Z,15.15
2023-04-18T07:48:42.952Z,15.40
2023-04-18T07:51:11.408Z,13.65
2023-04-18T07:53:38.473Z,14.38
2023-04-18T07:56:05.651Z,13.95
2023-04-18T07:58:34.902Z,13.80
2023-04-18T08:01:04.083Z,14.07
2023-04-18T08:03:31.142Z,13.65
2023-04-18T08:05:58.303Z,13.30
2023-04-18T08:08:25.362Z,13.02
2023-04-18T08:10:52.441Z,13.45
2023-04-18T08:13:19.409Z,13.40
2023-04-18T08:15:46.941Z,13.50
2023-04-18T08:18:14.048Z,13.55
2023-04-18T08:20:41.116Z,13.32
2023-04-18T08:23:11.313Z,13.07
2023-04-18T08:25:39.940Z,13.07
2023-04-18T08:28:07.025Z,13.73
2023-04-18T08:30:34.224Z,14.15
2023-04-18T08:33:01.807Z,13.25
2023-04-18T08:35:29.161Z,12.07
2023-04-18T08:37:56.155Z,12.25
2023-04-18T08:40:24.943Z,11.90
2023-04-18T08:42:53.944Z,12.35
2023-04-18T08:45:21.042Z,12.35
2023-04-18T08:47:48.217Z,11.80
2023-04-18T08:50:16.636Z,11.02
2023-04-18T08:52:49.838Z,12.07
2023-04-18T08:55:17.055Z,10.45
2023-04-18T08:57:44.850Z,11.10
2023-04-18T09:00:12.419Z,10.73
2023-04-18T09:02:45.243Z,10.32
2023-04-18T09:05:20.205Z,10.70
2023-04-18T09:07:48.902Z,10.18
2023-04-18T09:10:33.792Z,10.75
2023-04-18T09:13:05.716Z,9.75
2023-04-18T09:15:32.805Z,10.13
2023-04-18T09:18:03.267Z,10.45
2023-04-18T09:20:42.360Z,12.20
2023-04-18T09:23:21.684Z,11.33
2023-04-18T09:25:53.352Z,10.35
2023-04-18T09:28:32.046Z,11.32
2023-04-18T09:31:13.114Z,12.23
2023-04-18T09:33:43.374Z,12.00
2023-04-18T09:36:25.146Z,11.75
2023-04-18T09:38:56.280Z,11.70
2023-04-18T09:41:24.259Z,11.95
2023-04-18T09:44:07.630Z,12.57
2023-04-18T09:46:34.741Z,11.32
2023-04-18T09:49:02.314Z,12.82
2023-04-18T09:51:31.421Z,12.68
2023-04-18T09:53:58.527Z,11.88
2023-04-18T09:56:28.360Z,12.90
2023-04-18T10:01:28.545Z,11.57
2023-04-18T10:03:57.583Z,11.95
2023-04-18T10:06:28.683Z,11.00
2023-04-18T10:08:56.247Z,11.25
2023-04-18T10:11:24.401Z,10.75
2023-04-18T10:13:55.952Z,10.43
2023-04-18T10:16:23.355Z,11.40
2023-04-18T10:18:51.367Z,10.60
2023-04-18T10:21:18.415Z,10.95
2023-04-18T10:23:48.915Z,10.93
2023-04-18T10:26:16.315Z,10.52
2023-04-18T10:28:57.708Z,9.35
2023-04-18T10:31:27.091Z,9.90
2023-04-18T10:34:04.637Z,9.63
2023-04-18T10:36:33.180Z,10.45
2023-04-18T10:39:21.982Z,10.05
2023-04-18T10:41:51.108Z,9.75
2023-04-18T10:44:23.206Z,8.85
2023-04-18T10:46:53.670Z,9.57
2023-04-18T10:49:24.462Z,9.40
2023-04-18T10:52:00.552Z,9.32
2023-04-18T10:55:02.014Z,10.15
2023-04-18T10:57:43.946Z,8.38
2023-04-18T11:00:13.977Z,8.27
2023-04-18T11:02:48.147Z,9.55
2023-04-18T11:05:20.889Z,10.27
2023-04-18T11:07:50.672Z,9.20
2023-04-18T11:13:04.570Z,9.18
2023-04-18T11:15:31.670Z,8.90
2023-04-18T11:18:03.940Z,9.52
2023-04-18T11:20:39.509Z,9.10
2023-04-18T11:23:21.473Z,8.27
2023-04-18T11:25:51.590Z,8.68
2023-04-18T11:28:24.941Z,7.18
2023-04-18T11:30:52.116Z,7.22
2023-04-18T11:33:19.128Z,7.65
2023-04-18T11:36:42.849Z,8.02
2023-04-18T11:39:10.675Z,8.45
2023-04-18T11:41:40.300Z,7.50
2023-04-18T11:44:07.466Z,7.80
2023-04-18T11:46:38.968Z,8.05
2023-04-18T11:49:06.195Z,9.30
2023-04-18T11:51:39.989Z,7.65
2023-04-18T11:54:27.119Z,8.20
2023-04-18T11:56:54.134Z,8.57
2023-04-18T11:59:21.096Z,7.97
2023-04-18T12:01:48.344Z,8.73
2023-04-18T12:04:16.807Z,10.43
2023-04-18T12:06:52.436Z,9.38
2023-04-18T12:09:26.840Z,8.52
2023-04-18T12:12:01.748Z,8.50
2023-04-18T12:14:29.476Z,8.23
2023-04-18T12:16:56.826Z,11.70
2023-04-18T12:19:28.454Z,8.63
2023-04-18T12:22:08.054Z,8.13
2023-04-18T12:24:36.152Z,7.65
2023-04-18T12:27:03.707Z,7.68
2023-04-18T12:29:30.756Z,7.20
2023-04-18T12:31:57.831Z,7.13
2023-04-18T12:34:24.973Z,7.88
2023-04-18T12:36:52.475Z,8.10
2023-04-18T12:39:19.485Z,8.13
2023-04-18T12:41:49.048Z,7.95
2023-04-18T12:44:16.843Z,7.32
2023-04-18T12:46:43.836Z,7.50
2023-04-18T12:49:10.917Z,7.32
2023-04-18T12:51:37.921Z,7.65
2023-04-18T12:54:04.925Z,7.50
2023-04-18T12:56:31.990Z,7.20
2023-04-18T12:58:58.933Z,6.50
2023-04-18T13:01:25.985Z,8.10
2023-04-18T13:04:03.928Z,7.85
2023-04-18T13:06:38.377Z,8.43
2023-04-18T13:09:05.376Z,8.63
2023-04-18T13:11:32.374Z,6.57
2023-04-18T13:14:00.227Z,6.68
2023-04-18T13:16:27.234Z,8.30
2023-04-18T13:18:54.202Z,7.45
2023-04-18T13:21:25.024Z,6.97
2023-04-18T13:23:52.129Z,6.93
2023-04-18T13:26:19.139Z,6.80
2023-04-18T13:28:46.092Z,6.75
2023-04-18T13:31:14.142Z,6.55
2023-04-18T13:33:42.639Z,6.50
2023-04-18T13:36:09.813Z,7.40
2023-04-18T13:38:37.409Z,6.40
2023-04-18T13:41:12.205Z,6.88
2023-04-18T13:43:40.458Z,6.78
2023-04-18T13:46:07.470Z,7.03
2023-04-18T13:48:34.443Z,7.15
2023-04-18T13:51:02.498Z,7.03
2023-04-18T13:53:30.874Z,7.13
2023-04-18T13:55:58.360Z,6.82
2023-04-18T13:58:25.700Z,6.57
2023-04-18T14:00:52.985Z,6.65
2023-04-18T14:03:20.675Z,7.10
2023-04-18T14:05:47.769Z,6.70
2023-04-18T14:08:22.091Z,7.40
2023-04-18T14:10:49.345Z,7.53
2023-04-18T14:13:16.702Z,7.75
2023-04-18T14:15:43.811Z,7.07
2023-04-18T14:18:10.844Z,7.13
2023-04-18T14:20:37.997Z,7.35
2023-04-18T14:23:05.019Z,7.57
2023-04-18T14:25:32.167Z,7.43
2023-04-18T14:28:11.073Z,6.75
2023-04-18T14:30:39.396Z,7.37
2023-04-18T14:33:07.421Z,6.85
2023-04-18T14:35:34.509Z,7.25
2023-04-18T14:38:01.631Z,7.63
2023-04-18T14:40:29.859Z,7.53
2023-04-18T14:42:57.813Z,6.47
2023-04-18T14:45:24.865Z,6.40
2023-04-18T14:47:51.973Z,7.43
2023-04-18T14:50:19.119Z,7.75
2023-04-18T14:52:46.203Z,6.57
2023-04-18T14:55:13.634Z,7.72
2023-04-18T14:57:40.760Z,6.38
2023-04-18T15:00:12.693Z,6.55
2023-04-18T15:02:40.411Z,7.32
2023-04-18T15:05:08.702Z,6.47
2023-04-18T15:07:37.852Z,7.13
2023-04-18T15:10:05.584Z,6.78
2023-04-18T15:12:43.966Z,6.72
2023-04-18T15:15:11.259Z,6.40
2023-04-18T15:17:38.405Z,6.70
2023-04-18T15:20:09.579Z,7.13
2023-04-18T15:22:37.026Z,6.95
2023-04-18T15:25:05.188Z,7.45
2023-04-18T15:27:32.430Z,6.75
2023-04-18T15:29:59.524Z,7.15
2023-04-18T15:32:26.783Z,6.90
2023-04-18T15:34:53.886Z,6.95
2023-04-18T15:37:21.606Z,7.25
2023-04-18T15:39:48.622Z,6.30
2023-04-18T15:42:34.004Z,6.97
2023-04-18T15:45:01.021Z,7.72
2023-04-18T15:47:28.102Z,7.57
2023-04-18T15:49:55.085Z,7.43
2023-04-18T15:52:22.183Z,8.07
2023-04-18T15:54:52.078Z,7.93
2023-04-18T15:59:46.104Z,7.70
2023-04-18T16:02:13.209Z,8.18
2023-04-18T16:04:40.333Z,7.70
2023-04-18T16:07:08.360Z,7.35
2023-04-18T16:09:35.434Z,7.47
2023-04-18T16:12:03.534Z,7.85
2023-04-18T16:14:31.376Z,8.02
2023-04-18T16:16:59.261Z,7.78
2023-04-18T16:19:26.584Z,8.57
2023-04-18T16:21:53.536Z,8.88
2023-04-18T16:24:20.602Z,7.85
2023-04-18T16:26:47.686Z,9.15
2023-04-18T16:29:14.753Z,8.20
2023-04-18T16:31:43.287Z,8.07
2023-04-18T16:34:10.549Z,10.00
2023-04-18T16:36:37.534Z,8.50
2023-04-18T16:39:04.788Z,7.68
2023-04-18T16:46:00.352Z,8.23
2023-04-18T16:48:28.969Z,8.38
2023-04-18T16:50:56.414Z,8.70
2023-04-18T16:53:34.712Z,9.05
2023-04-18T16:56:03.372Z,8.95
2023-04-18T16:58:30.455Z,9.02
2023-04-18T17:00:57.470Z,8.25
2023-04-18T17:03:24.522Z,9.10
2023-04-18T17:05:51.615Z,8.93
2023-04-18T17:08:19.605Z,8.32
2023-04-18T17:10:53.424Z,9.30
2023-04-18T17:13:27.052Z,9.00
2023-04-18T17:15:54.356Z,9.20
2023-04-18T17:18:21.429Z,9.30
2023-04-18T17:20:48.607Z,10.25
2023-04-18T17:23:15.582Z,11.85
2023-04-18T17:25:42.544Z,9.43
2023-04-18T17:28:09.544Z,8.70
2023-04-18T17:30:42.337Z,9.65
2023-04-18T17:33:12.318Z,9.05
2023-04-18T17:35:42.510Z,9.30
2023-04-18T17:38:10.730Z,9.38
2023-04-18T17:40:37.907Z,9.52
2023-04-18T17:43:04.851Z,9.05
2023-04-18T17:45:31.802Z,9.85
2023-04-18T17:48:02.251Z,9.77
2023-04-18T17:50:29.444Z,9.55
2023-04-18T17:52:56.499Z,9.63
2023-04-18T17:55:23.885Z,9.48
2023-04-18T17:57:50.841Z,9.05
2023-04-18T18:00:18.309Z,9.25
2023-04-18T18:02:45.644Z,7.70
2023-04-18T18:05:13.665Z,8.95
2023-04-18T18:07:43.859Z,10.45
2023-04-18T18:10:11.770Z,9.23
2023-04-18T18:13:19.475Z,10.88
2023-04-18T18:15:46.460Z,8.82
2023-04-18T18:18:26.837Z,9.60
2023-04-18T18:20:54.069Z,9.00
2023-04-18T18:23:21.586Z,10.30
2023-04-18T18:25:48.735Z,9.63
2023-04-18T18:28:15.796Z,9.27
2023-04-18T18:30:43.152Z,12.18
2023-04-18T18:33:10.208Z,9.30
2023-04-18T18:35:37.205Z,9.80
2023-04-18T18:38:04.185Z,8.90
2023-04-18T18:40:31.226Z,9.43
2023-04-18T18:42:58.796Z,9.98
2023-04-18T18:45:27.937Z,9.75
2023-04-18T18:47:54.988Z,9.80
2023-04-18T18:50:22.080Z,9.20
2023-04-18T18:52:49.025Z,10.02
2023-04-18T18:55:16.466Z,9.40
2023-04-18T18:57:43.410Z,10.02
2023-04-18T19:00:13.711Z,9.38
2023-04-18T19:02:53.072Z,9.90
2023-04-18T19:05:20.123Z,10.25
2023-04-18T19:07:47.177Z,10.38
2023-04-18T19:10:14.363Z,9.60
2023-04-18T19:12:41.742Z,10.13
2023-04-18T19:15:09.880Z,9.98
2023-04-18T19:17:37.327Z,9.68
2023-04-18T19:20:05.057Z,9.18
2023-04-18T19:22:32.398Z,10.25
2023-04-18T19:25:01.188Z,10.02
2023-04-18T19:27:28.302Z,10.53
2023-04-18T19:29:55.576Z,10.60
2023-04-18T19:32:23.246Z,10.77
2023-04-18T19:34:51.594Z,10.38
2023-04-18T19:37:19.129Z,10.77
2023-04-18T19:39:46.541Z,11.35
2023-04-18T19:42:14.073Z,10.32
2023-04-18T19:44:41.918Z,11.57
2023-04-18T19:48:02.900Z,11.27
2023-04-18T19:50:30.225Z,11.07
2023-04-18T19:52:57.579Z,11.45
2023-04-18T19:55:25.437Z,11.93
2023-04-18T19:57:56.790Z,11.15
2023-04-18T20:00:24.318Z,11.93
2023-04-18T20:02:51.992Z,12.30
2023-04-18T20:05:19.684Z,10.88
2023-04-18T20:07:47.186Z,11.73
2023-04-18T20:10:14.725Z,12.15
2023-04-18T20:12:42.059Z,11.27
2023-04-18T20:15:09.940Z,12.88
2023-04-18T20:17:37.377Z,12.35
2023-04-18T20:20:08.334Z,11.55
2023-04-18T20:22:40.174Z,11.60
2023-04-18T20:25:07.802Z,12.88
2023-04-18T20:27:35.279Z,12.73
2023-04-18T20:30:02.795Z,13.20
2023-04-18T20:32:30.548Z,12.38
2023-04-18T20:34:58.724Z,13.73
2023-04-18T20:37:27.817Z,13.43
2023-04-18T20:39:56.030Z,13.73
2023-04-18T20:42:23.748Z,13.88
2023-04-18T20:44:54.697Z,13.63
2023-04-18T20:47:21.682Z,13.13
2023-04-18T20:49:48.656Z,13.73
2023-04-18T20:52:15.635Z,14.23
2023-04-18T20:54:42.633Z,13.85
2023-04-18T20:57:09.620Z,14.95
2023-04-18T20:59:36.617Z,13.63
2023-04-18T21:02:03.789Z,14.02
2023-04-18T21:04:30.876Z,14.32
2023-04-18T21:06:57.999Z,14.70
2023-04-18T21:09:24.961Z,14.75
2023-04-18T21:11:51.968Z,14.45
2023-04-18T21:14:20.045Z,16.10
2023-04-18T21:16:46.993Z,14.07
2023-04-18T21:19:13.941Z,16.08
2023-04-18T21:21:41.059Z,14.98
2023-04-18T21:24:08.379Z,15.10
2023-04-18T21:26:35.824Z,14.00
2023-04-18T21:29:06.759Z,15.48
2023-04-18T21:31:35.707Z,14.75
2023-04-18T21:34:04.698Z,10.75
2023-04-18T21:36:32.553Z,14.53
2023-04-18T21:39:01.356Z,15.35
2023-04-18T21:41:28.574Z,14.87
2023-04-18T21:43:55.788Z,13.95
2023-04-18T21:46:22.915Z,14.10
2023-04-18T21:48:49.994Z,15.20
2023-04-18T21:51:17.587Z,15.55
2023-04-18T21:53:45.033Z,14.38
2023-04-18T21:56:12.145Z,13.60
2023-04-18T21:58:41.206Z,14.93
2023-04-18T22:01:08.277Z,13.82
2023-04-18T22:03:37.183Z,13.75
2023-04-18T22:06:04.546Z,14.65
2023-04-18T22:08:31.781Z,15.18
2023-04-18T22:10:59.394Z,14.85
2023-04-18T22:13:33.195Z,14.60
2023-04-18T22:16:04.411Z,14.93
2023-04-18T22:18:34.947Z,14.48
2023-04-18T22:21:03.549Z,13.95
2023-04-18T22:23:31.110Z,14.75
2023-04-18T22:25:58.169Z,15.25
2023-04-18T22:28:25.237Z,14.38
2023-04-18T22:30:52.281Z,13.85
2023-04-18T22:33:19.468Z,14.90
2023-04-18T22:35:48.018Z,14.38
2023-04-18T22:38:15.287Z,14.30
2023-04-18T22:40:42.424Z,13.75
2023-04-18T22:43:09.358Z,15.25
2023-04-18T22:45:36.382Z,15.23
2023-04-18T22:48:03.560Z,13.82
2023-04-18T22:50:30.536Z,13.73
2023-04-18T22:52:57.498Z,14.27
2023-04-18T22:55:24.548Z,13.88
2023-04-18T22:57:51.505Z,13.43
2023-04-18T23:00:18.875Z,13.68
2023-04-18T23:02:46.037Z,13.93
2023-04-18T23:05:15.602Z,12.65
2023-04-18T23:07:42.541Z,13.02
2023-04-18T23:10:10.032Z,13.68
2023-04-18T23:12:36.970Z,13.75
2023-04-18T23:15:04.315Z,14.07
2023-04-18T23:17:31.264Z,14.10
2023-04-18T23:19:58.254Z,14.07
2023-04-18T23:22:25.296Z,14.13
2023-04-18T23:24:52.685Z,13.82
2023-04-18T23:27:19.931Z,13.35
2023-04-18T23:29:48.834Z,13.65
2023-04-18T23:32:15.951Z,10.10
2023-04-18T23:34:42.938Z,13.65
2023-04-18T23:37:09.938Z,14.07
2023-04-18T23:39:36.958Z,14.70
2023-04-18T23:42:03.972Z,13.63
2023-04-18T23:44:31.747Z,13.70
2023-04-18T23:46:59.039Z,14.38
2023-04-18T23:49:28.203Z,14.85
2023-04-18T23:51:55.181Z,15.23
2023-04-18T23:54:22.181Z,15.52
2023-04-18T23:56:49.168Z,15.27
2023-04-18T23:59:16.114Z,14.80
